Terminal Aerodrome Forecast
Issued by NWS Huntsville, AL

Home | Current Version | Previous Version | Text Only | Print | Product List | Glossary On
Versions: 1 2 3 4 5 6 7 8 9 10 11 12
000
FTUS44 KHUN 262320
TAFHSV
TAF
KHSV 262320Z 2700/2724 15003KT P6SM FEW060
     FM271400 17005KT P6SM SCT060 SCT250
     FM271900 20010KT P6SM FEW070 BKN150=

USA.gov is the U.S. government's official web portal to all federal, state and local government web resources and services.